createdAt,value
2022-09-16T00:00:48.135Z,11.16
2022-09-16T00:03:54.911Z,11.17
2022-09-16T00:06:56.391Z,11.15
2022-09-16T00:09:57.900Z,11.14
2022-09-16T00:12:59.452Z,11.13
2022-09-16T00:16:01.183Z,11.13
2022-09-16T00:19:03.555Z,11.10
2022-09-16T00:22:05.771Z,11.13
2022-09-16T00:25:07.667Z,11.12
2022-09-16T00:28:09.501Z,11.12
2022-09-16T00:31:11.246Z,11.10
2022-09-16T00:34:12.955Z,11.09
2022-09-16T00:37:14.514Z,11.06
2022-09-16T00:40:16.405Z,11.10
2022-09-16T00:43:19.922Z,11.10
2022-09-16T00:46:36.181Z,11.08
2022-09-16T00:49:37.921Z,11.08
2022-09-16T00:52:41.447Z,11.07
2022-09-16T00:55:44.603Z,11.05
2022-09-16T00:58:50.960Z,11.03
2022-09-16T01:01:55.830Z,11.01
2022-09-16T01:04:57.455Z,11.02
2022-09-16T01:07:59.440Z,11.01
2022-09-16T01:11:01.053Z,11.03
2022-09-16T01:14:22.887Z,11.01
2022-09-16T01:17:39.680Z,11.04
2022-09-16T01:21:11.695Z,11.02
2022-09-16T01:24:19.223Z,10.98
2022-09-16T01:27:26.757Z,10.99
2022-09-16T01:30:51.435Z,11.02
2022-09-16T01:34:14.704Z,11.02
2022-09-16T01:37:32.826Z,11.00
2022-09-16T01:40:37.337Z,10.98
2022-09-16T01:44:12.738Z,11.01
2022-09-16T01:47:27.421Z,10.99
2022-09-16T01:50:59.532Z,10.98
2022-09-16T01:54:21.299Z,11.01
2022-09-16T01:57:43.058Z,11.02
2022-09-16T02:00:48.831Z,11.03
2022-09-16T02:03:59.220Z,11.06
2022-09-16T02:07:04.020Z,11.07
2022-09-16T02:10:20.395Z,11.10
2022-09-16T02:13:40.182Z,11.09
2022-09-16T02:17:02.284Z,11.09
2022-09-16T02:20:11.194Z,11.06
2022-09-16T02:23:20.354Z,11.05
2022-09-16T02:26:29.120Z,11.06
2022-09-16T02:29:42.680Z,11.06
2022-09-16T02:32:48.600Z,11.07
2022-09-16T02:35:54.105Z,11.08
2022-09-16T02:39:09.372Z,11.10
2022-09-16T02:42:11.695Z,11.05
2022-09-16T02:45:13.985Z,11.06
2022-09-16T02:48:39.432Z,11.06
2022-09-16T02:52:04.828Z,11.09
2022-09-16T02:55:22.582Z,11.07
2022-09-16T02:58:24.189Z,11.08
2022-09-16T03:01:27.275Z,11.09
2022-09-16T03:04:29.171Z,11.08
2022-09-16T03:07:30.877Z,11.08
2022-09-16T03:10:42.604Z,11.05
2022-09-16T03:14:04.342Z,11.09
2022-09-16T03:17:11.816Z,11.07
2022-09-16T03:20:44.234Z,11.08
2022-09-16T03:23:54.763Z,11.10
2022-09-16T03:27:08.998Z,11.07
2022-09-16T03:30:11.711Z,11.07
2022-09-16T03:33:23.670Z,11.08
2022-09-16T03:36:33.461Z,11.10
2022-09-16T03:39:36.857Z,11.09
2022-09-16T03:42:40.125Z,11.10
2022-09-16T03:45:42.834Z,11.12
2022-09-16T03:48:44.856Z,11.14
2022-09-16T03:51:46.497Z,11.16
2022-09-16T03:54:48.088Z,11.17
2022-09-16T03:57:49.653Z,11.17
2022-09-16T04:00:51.742Z,11.18
2022-09-16T04:03:53.436Z,11.17
2022-09-16T04:06:55.422Z,11.19
2022-09-16T04:09:57.004Z,11.22
2022-09-16T04:12:58.853Z,11.23
2022-09-16T04:16:01.605Z,11.25
2022-09-16T04:19:03.329Z,11.25
2022-09-16T04:22:05.056Z,11.22
2022-09-16T04:25:07.402Z,11.22
2022-09-16T04:28:09.130Z,11.20
2022-09-16T04:31:12.606Z,11.17
2022-09-16T04:34:14.341Z,11.15
2022-09-16T04:37:15.953Z,11.10
2022-09-16T04:40:17.694Z,11.02
2022-09-16T04:43:19.504Z,10.99
2022-09-16T04:46:21.065Z,10.96
2022-09-16T04:49:22.691Z,10.97
2022-09-16T04:52:24.385Z,10.96
2022-09-16T04:55:25.960Z,10.95
2022-09-16T04:58:29.438Z,10.97
2022-09-16T05:01:33.324Z,10.97
2022-09-16T05:04:34.935Z,10.95
2022-09-16T05:07:36.499Z,10.98
2022-09-16T05:10:38.126Z,10.97
2022-09-16T05:13:40.138Z,11.03
2022-09-16T05:16:42.200Z,11.02
2022-09-16T05:19:43.708Z,11.01
2022-09-16T05:22:45.683Z,11.03
2022-09-16T05:25:47.262Z,11.00
2022-09-16T05:28:50.882Z,11.07
2022-09-16T05:31:52.475Z,11.10
2022-09-16T05:34:54.817Z,11.13
2022-09-16T05:37:56.401Z,11.13
2022-09-16T05:41:05.233Z,11.19
2022-09-16T05:44:07.088Z,11.21
2022-09-16T05:47:08.642Z,11.24
2022-09-16T05:50:10.201Z,11.25
2022-09-16T05:53:11.785Z,11.28
2022-09-16T05:56:18.878Z,11.32
2022-09-16T05:59:20.806Z,11.32
2022-09-16T06:02:22.475Z,11.32
2022-09-16T06:05:24.183Z,11.29
2022-09-16T06:08:26.395Z,11.22
2022-09-16T06:11:29.008Z,11.21
2022-09-16T06:14:31.076Z,11.24
2022-09-16T06:17:32.725Z,11.23
2022-09-16T06:20:36.577Z,11.30
2022-09-16T06:23:39.758Z,11.32
2022-09-16T06:26:42.949Z,11.43
2022-09-16T06:29:44.551Z,11.48
2022-09-16T06:32:46.120Z,11.49
2022-09-16T06:35:47.782Z,11.54
2022-09-16T06:38:51.220Z,11.70
2022-09-16T06:41:53.317Z,11.78
2022-09-16T06:45:04.817Z,11.84
2022-09-16T06:48:06.611Z,11.82
2022-09-16T06:51:11.021Z,11.85
2022-09-16T06:54:12.792Z,11.92
2022-09-16T06:57:14.401Z,12.01
2022-09-16T07:00:16.083Z,11.91
2022-09-16T07:03:17.961Z,11.90
2022-09-16T07:06:21.317Z,11.98
2022-09-16T07:09:23.386Z,12.07
2022-09-16T07:12:25.052Z,12.01
2022-09-16T07:15:26.602Z,11.84
2022-09-16T07:18:30.243Z,11.79
2022-09-16T07:21:32.093Z,11.77
2022-09-16T07:24:34.210Z,11.83
2022-09-16T07:27:35.881Z,11.96
2022-09-16T07:30:39.034Z,11.99
2022-09-16T07:33:43.081Z,12.04
2022-09-16T07:36:47.326Z,12.09
2022-09-16T07:39:49.829Z,12.14
2022-09-16T07:42:51.462Z,12.20
2022-09-16T07:45:59.627Z,12.28
2022-09-16T07:49:03.197Z,12.36
2022-09-16T07:52:04.833Z,12.38
2022-09-16T07:55:06.577Z,12.41
2022-09-16T07:58:08.211Z,12.47
2022-09-16T08:01:09.920Z,12.54
2022-09-16T08:04:12.285Z,12.61
2022-09-16T08:07:13.945Z,12.69
2022-09-16T08:10:16.268Z,12.73
2022-09-16T08:13:18.007Z,12.81
2022-09-16T08:16:22.069Z,12.76
2022-09-16T08:19:23.667Z,12.81
2022-09-16T08:22:25.862Z,12.89
2022-09-16T08:25:27.524Z,12.97
2022-09-16T08:28:39.937Z,12.98
2022-09-16T08:31:52.079Z,12.97
2022-09-16T08:34:53.717Z,12.99
2022-09-16T08:37:56.593Z,13.05
2022-09-16T08:41:08.592Z,13.13
2022-09-16T08:44:34.170Z,13.23
2022-09-16T08:48:04.205Z,13.33
2022-09-16T08:51:09.630Z,13.49
2022-09-16T08:54:18.319Z,13.67
2022-09-16T08:57:23.482Z,13.61
2022-09-16T09:00:25.332Z,13.59
2022-09-16T09:03:46.953Z,13.62
2022-09-16T09:06:52.623Z,13.66
2022-09-16T09:10:25.823Z,13.58
2022-09-16T09:13:55.744Z,13.68
2022-09-16T09:17:19.351Z,13.88
2022-09-16T09:20:58.638Z,13.96
2022-09-16T09:24:18.301Z,14.12
2022-09-16T09:27:41.779Z,14.30
2022-09-16T09:30:59.935Z,14.24
2022-09-16T09:34:20.150Z,14.00
2022-09-16T09:37:42.489Z,13.76
2022-09-16T09:40:52.529Z,13.57
2022-09-16T09:44:04.674Z,13.63
2022-09-16T09:47:21.762Z,13.81
2022-09-16T09:50:26.420Z,13.80
2022-09-16T09:53:43.842Z,13.94
2022-09-16T09:56:46.162Z,14.13
2022-09-16T09:59:55.530Z,14.35
2022-09-16T10:03:11.556Z,14.66
2022-09-16T10:06:13.378Z,14.83
2022-09-16T10:09:17.016Z,14.94
2022-09-16T10:12:33.815Z,15.15
2022-09-16T10:15:36.221Z,15.15
2022-09-16T10:18:38.244Z,15.11
2022-09-16T10:21:55.246Z,15.03
2022-09-16T10:24:58.367Z,14.76
2022-09-16T10:28:02.165Z,14.76
2022-09-16T10:31:08.461Z,14.65
2022-09-16T10:34:23.889Z,14.58
2022-09-16T10:37:28.100Z,14.53
2022-09-16T10:40:31.117Z,14.33
2022-09-16T10:43:32.873Z,14.25
2022-09-16T10:46:35.160Z,14.41
2022-09-16T10:49:50.361Z,14.61
2022-09-16T10:52:53.538Z,14.71
2022-09-16T10:56:05.606Z,14.93
2022-09-16T10:59:12.668Z,15.04
2022-09-16T11:02:49.903Z,14.84
2022-09-16T11:06:03.658Z,14.73
2022-09-16T11:09:40.792Z,14.90
2022-09-16T11:13:09.930Z,15.02
2022-09-16T11:16:39.317Z,15.10
2022-09-16T11:19:54.880Z,15.16
2022-09-16T11:23:18.289Z,15.34
2022-09-16T11:27:00.871Z,15.56
2022-09-16T11:30:15.198Z,15.74
2022-09-16T11:33:22.524Z,15.84
2022-09-16T11:36:35.730Z,15.88
2022-09-16T11:39:40.028Z,15.92
2022-09-16T11:42:49.319Z,15.96
2022-09-16T11:46:07.527Z,15.90
2022-09-16T11:49:27.590Z,15.69
2022-09-16T11:52:46.826Z,15.34
2022-09-16T11:56:15.742Z,14.78
2022-09-16T11:59:40.258Z,14.14
2022-09-16T12:03:04.661Z,13.98
2022-09-16T12:06:12.434Z,13.85
2022-09-16T12:09:20.206Z,13.79
2022-09-16T12:12:45.319Z,13.79
2022-09-16T12:15:59.746Z,13.88
2022-09-16T12:19:11.298Z,14.02
2022-09-16T12:22:22.785Z,14.19
2022-09-16T12:25:38.243Z,14.27
2022-09-16T12:28:49.031Z,14.34
2022-09-16T12:31:51.279Z,14.42
2022-09-16T12:35:06.243Z,14.59
2022-09-16T12:38:18.418Z,14.70
2022-09-16T12:41:35.107Z,14.78
2022-09-16T12:44:58.753Z,14.71
2022-09-16T12:48:28.780Z,14.73
2022-09-16T12:51:50.126Z,14.77
2022-09-16T12:55:07.681Z,14.94
2022-09-16T12:58:49.252Z,15.15
2022-09-16T13:01:59.662Z,15.30
2022-09-16T13:05:14.406Z,15.34
2022-09-16T13:08:23.203Z,15.63
2022-09-16T13:12:16.520Z,15.82
2022-09-16T13:14:57.072Z,15.78
2022-09-16T13:18:21.126Z,15.71
2022-09-16T13:21:29.882Z,15.82
2022-09-16T13:24:38.045Z,15.75
2022-09-16T13:27:51.995Z,15.71
2022-09-16T13:30:54.552Z,15.41
2022-09-16T13:33:59.207Z,15.26
2022-09-16T13:37:00.799Z,15.11
2022-09-16T13:40:26.450Z,15.14
2022-09-16T13:43:36.547Z,15.27
2022-09-16T13:46:38.612Z,15.11
2022-09-16T13:49:47.040Z,14.67
2022-09-16T13:52:50.452Z,14.21
2022-09-16T13:55:55.713Z,13.81
2022-09-16T13:59:21.807Z,13.47
2022-09-16T14:02:35.387Z,13.17
2022-09-16T14:06:03.724Z,13.24
2022-09-16T14:09:20.412Z,13.31
2022-09-16T14:12:36.548Z,13.32
2022-09-16T14:15:43.909Z,13.35
2022-09-16T14:18:57.500Z,13.41
2022-09-16T14:22:16.980Z,13.54
2022-09-16T14:25:29.415Z,13.70
2022-09-16T14:28:32.352Z,13.65
2022-09-16T14:31:37.431Z,13.53
2022-09-16T14:34:39.069Z,13.29
2022-09-16T14:37:44.589Z,12.81
2022-09-16T14:40:46.755Z,12.33
2022-09-16T14:43:48.749Z,12.01
2022-09-16T14:47:08.835Z,11.89
2022-09-16T14:50:19.458Z,11.87
2022-09-16T14:53:35.301Z,11.92
2022-09-16T14:56:38.467Z,11.93
2022-09-16T14:59:44.561Z,11.94
2022-09-16T15:02:52.806Z,12.04
2022-09-16T15:05:55.859Z,12.06
2022-09-16T15:09:06.617Z,12.09
2022-09-16T15:12:19.847Z,12.11
2022-09-16T15:15:27.526Z,12.06
2022-09-16T15:18:34.808Z,12.08
2022-09-16T15:21:38.681Z,12.18
2022-09-16T15:24:41.563Z,12.30
2022-09-16T15:27:43.124Z,12.39
2022-09-16T15:30:50.596Z,12.45
2022-09-16T15:33:52.548Z,12.53
2022-09-16T15:36:58.650Z,12.61
2022-09-16T15:40:20.921Z,12.63
2022-09-16T15:43:29.505Z,12.68
2022-09-16T15:46:31.323Z,12.70
2022-09-16T15:49:38.255Z,12.70
2022-09-16T15:52:48.986Z,12.67
2022-09-16T15:56:22.608Z,12.61
2022-09-16T15:59:51.120Z,12.55
2022-09-16T16:02:57.391Z,12.52
2022-09-16T16:05:59.155Z,12.48
2022-09-16T16:09:00.696Z,12.45
2022-09-16T16:12:07.531Z,12.43
2022-09-16T16:15:09.243Z,12.38
2022-09-16T16:18:12.297Z,12.36
2022-09-16T16:21:16.191Z,12.35
2022-09-16T16:24:17.926Z,12.37
2022-09-16T16:27:20.280Z,12.38
2022-09-16T16:30:21.919Z,12.40
2022-09-16T16:33:23.511Z,12.39
2022-09-16T16:36:25.244Z,12.38
2022-09-16T16:39:26.868Z,12.38
2022-09-16T16:42:28.860Z,12.38
2022-09-16T16:45:31.200Z,12.38
2022-09-16T16:48:32.818Z,12.37
2022-09-16T16:51:34.507Z,12.39
2022-09-16T16:54:36.330Z,12.38
2022-09-16T16:57:37.951Z,12.36
2022-09-16T17:00:40.009Z,12.37
2022-09-16T17:03:42.312Z,12.39
2022-09-16T17:06:44.897Z,12.37
2022-09-16T17:09:46.418Z,12.38
2022-09-16T17:12:48.016Z,12.38
2022-09-16T17:15:49.798Z,12.37
2022-09-16T17:18:52.754Z,12.36
2022-09-16T17:21:55.813Z,12.33
2022-09-16T17:24:57.767Z,12.33
2022-09-16T17:27:59.474Z,12.33
2022-09-16T17:31:01.137Z,12.33
2022-09-16T17:34:07.371Z,12.33
2022-09-16T17:37:08.996Z,12.30
2022-09-16T17:40:11.057Z,12.29
2022-09-16T17:43:15.682Z,12.33
2022-09-16T17:46:20.170Z,12.31
2022-09-16T17:49:23.774Z,12.31
2022-09-16T17:52:25.595Z,12.30
2022-09-16T17:55:29.984Z,12.27
2022-09-16T17:58:32.065Z,12.25
2022-09-16T18:06:47.400Z,12.16
2022-09-16T18:10:39.170Z,12.15
2022-09-16T18:18:24.697Z,12.07
2022-09-16T18:30:49.538Z,11.95
2022-09-16T19:00:28.672Z,11.64
2022-09-16T19:04:11.011Z,11.52
2022-09-16T19:11:16.004Z,11.28
2022-09-16T19:32:43.910Z,10.86
2022-09-16T19:39:32.909Z,10.86
2022-09-16T19:43:10.568Z,10.82
2022-09-16T19:50:32.361Z,10.76
2022-09-16T19:53:42.214Z,10.74
2022-09-16T20:00:57.586Z,10.74
2022-09-16T20:04:11.829Z,10.70
2022-09-16T20:07:30.942Z,10.70
2022-09-16T20:10:32.677Z,10.65
2022-09-16T20:14:09.298Z,10.62
2022-09-16T20:34:31.345Z,10.50
2022-09-16T20:37:53.191Z,10.43
2022-09-16T20:45:48.655Z,10.43
2022-09-16T20:49:16.908Z,10.41
2022-09-16T21:03:41.062Z,10.47
2022-09-16T21:11:53.225Z,10.45
2022-09-16T21:15:17.413Z,10.43
2022-09-16T21:18:50.760Z,10.40
2022-09-16T21:22:59.645Z,10.40
2022-09-16T21:29:57.379Z,10.31
2022-09-16T21:38:18.531Z,10.29
2022-09-16T21:41:24.625Z,10.30
2022-09-16T21:44:29.031Z,10.31
2022-09-16T21:47:38.147Z,10.28
2022-09-16T21:59:01.052Z,10.31
2022-09-16T22:02:12.311Z,10.29
2022-09-16T22:06:03.727Z,10.30
2022-09-16T22:09:21.594Z,10.30
2022-09-16T22:12:26.930Z,10.27
2022-09-16T22:15:31.195Z,10.26
2022-09-16T22:18:42.571Z,10.25
2022-09-16T22:22:02.486Z,10.26
2022-09-16T22:25:05.103Z,10.25
2022-09-16T22:28:09.588Z,10.24
2022-09-16T22:31:16.674Z,10.27
2022-09-16T22:34:18.483Z,10.26
2022-09-16T22:37:20.049Z,10.29
2022-09-16T22:40:21.781Z,10.30
2022-09-16T22:43:23.490Z,10.32
2022-09-16T22:46:32.293Z,10.35
2022-09-16T22:49:34.085Z,10.35
2022-09-16T22:52:36.066Z,10.37
2022-09-16T22:55:37.660Z,10.36
2022-09-16T22:58:39.570Z,10.38
2022-09-16T23:01:43.487Z,10.39
2022-09-16T23:04:50.437Z,10.44
2022-09-16T23:08:04.114Z,10.47
2022-09-16T23:11:09.386Z,10.50
2022-09-16T23:14:22.570Z,10.52
2022-09-16T23:17:27.093Z,10.53
2022-09-16T23:20:28.891Z,10.55
2022-09-16T23:23:41.878Z,10.55
2022-09-16T23:26:50.535Z,10.57
2022-09-16T23:29:53.795Z,10.56
2022-09-16T23:32:57.708Z,10.55
2022-09-16T23:35:59.663Z,10.60
2022-09-16T23:39:02.088Z,10.59
2022-09-16T23:42:03.983Z,10.59
2022-09-16T23:45:06.270Z,10.60
2022-09-16T23:48:08.495Z,10.62
2022-09-16T23:51:14.183Z,10.62
2022-09-16T23:54:16.287Z,10.62
2022-09-16T23:57:17.918Z,10.63
